Time;durP1;ratioP1;P1;durP2;ratioP2;P2;SDS_P1;SDS_P2;PMS_P1;PMS_P2;Temp;Humidity;BMP_temperature;BMP_pressure;BME280_temperature;BME280_humidity;BME280_pressure;Samples;Min_cycle;Max_cycle;Signal;HPM_P1;HPM_P2
2023/03/01 00:01:34;;;;;;;5.20;3.25;;;;;;;4.03;100.00;102640.41;5084651;28;20080;-80
2023/03/01 00:04:00;;;;;;;5.32;3.40;;;;;;;4.03;100.00;102636.94;5104267;28;20510;-80
2023/03/01 00:06:27;;;;;;;5.57;3.45;;;;;;;4.04;100.00;102638.66;5107000;28;20036;-80
2023/03/01 00:08:52;;;;;;;4.10;3.15;;;;;;;4.07;100.00;102636.81;5102059;28;20039;-80
2023/03/01 00:11:30;;;;;;;4.45;3.13;;;;;;;4.09;100.00;102631.53;5089964;28;20138;-80
2023/03/01 00:13:58;;;;;;;5.22;3.00;;;;;;;4.08;100.00;102629.78;5108864;28;20034;-80
2023/03/01 00:16:27;;;;;;;5.22;3.05;;;;;;;4.07;100.00;102628.94;5101713;28;20051;-80
2023/03/01 00:18:55;;;;;;;3.53;2.50;;;;;;;4.09;100.00;102631.53;5098875;28;20055;-80
2023/03/01 00:21:24;;;;;;;4.15;2.85;;;;;;;4.07;100.00;102626.34;5102640;28;20034;-80
2023/03/01 00:23:50;;;;;;;7.53;3.00;;;;;;;4.09;100.00;102629.72;5104419;28;20471;-79
2023/03/01 00:26:18;;;;;;;5.50;3.60;;;;;;;4.11;100.00;102624.44;5107540;28;20028;-80
2023/03/01 00:28:45;;;;;;;4.50;3.53;;;;;;;4.12;100.00;102617.47;5103071;28;20036;-79
2023/03/01 00:31:14;;;;;;;3.33;2.65;;;;;;;4.12;100.00;102622.69;5106325;28;20391;-79
2023/03/01 00:33:42;;;;;;;7.00;3.55;;;;;;;4.13;100.00;102614.81;5104710;28;20066;-80
2023/03/01 00:36:09;;;;;;;5.75;3.22;;;;;;;4.14;100.00;102616.50;5108384;28;20023;-80
2023/03/01 00:38:41;;;;;;;4.72;3.28;;;;;;;4.17;100.00;102618.19;5086593;28;20034;-80
2023/03/01 00:41:10;;;;;;;3.92;3.15;;;;;;;4.18;100.00;102619.88;5109844;28;20426;-80
2023/03/01 00:43:36;;;;;;;6.95;3.60;;;;;;;4.14;100.00;102618.28;5110516;28;20031;-80
2023/03/01 00:46:08;;;;;;;6.45;3.17;;;;;;;4.17;100.00;102613.78;5106135;28;20036;-80
2023/03/01 00:48:34;;;;;;;4.38;2.95;;;;;;;4.15;100.00;102612.13;5109226;28;20505;-80
2023/03/01 00:51:24;;;;;;;6.05;3.08;;;;;;;4.17;100.00;102610.34;5091103;28;20378;-80
2023/03/01 00:53:51;;;;;;;3.92;2.63;;;;;;;4.17;100.00;102608.56;5102448;28;20111;-80
2023/03/01 00:56:18;;;;;;;8.35;3.58;;;;;;;4.19;100.00;102608.50;5076427;28;20459;-80
2023/03/01 00:58:44;;;;;;;2.42;2.13;;;;;;;4.19;100.00;102613.75;5110794;28;20037;-80
2023/03/01 01:01:30;;;;;;;5.38;2.80;;;;;;;4.24;100.00;102603.16;5108826;28;20032;-80
2023/03/01 01:03:58;;;;;;;3.95;2.42;;;;;;;4.24;100.00;102597.91;5100651;28;20039;-80
2023/03/01 01:06:27;;;;;;;7.22;3.00;;;;;;;4.25;100.00;102600.47;5109589;28;20590;-80
2023/03/01 01:08:54;;;;;;;7.18;4.25;;;;;;;4.26;100.00;102598.69;5109598;28;20518;-79
2023/03/01 01:11:21;;;;;;;6.57;3.08;;;;;;;4.29;100.00;102590.75;5107597;28;20059;-80
2023/03/01 01:13:48;;;;;;;5.18;3.00;;;;;;;4.29;100.00;102586.38;5108165;28;20372;-79
2023/03/01 01:16:15;;;;;;;3.00;2.70;;;;;;;4.34;100.00;102591.47;5109796;28;20115;-77
2023/03/01 01:18:42;;;;;;;9.27;3.15;;;;;;;4.36;100.00;102576.56;5094563;28;20040;-77
2023/03/01 01:21:12;;;;;;;3.58;2.42;;;;;;;4.37;100.00;102574.78;5110104;28;20056;-80
2023/03/01 01:23:39;;;;;;;3.08;2.78;;;;;;;4.37;100.00;102570.41;5107376;28;20040;-80
2023/03/01 01:26:19;;;;;;;4.82;2.55;;;;;;;4.39;100.00;102562.50;5085311;28;20030;-80
2023/03/01 01:28:46;;;;;;;3.75;2.25;;;;;;;4.38;100.00;102561.63;5107375;28;20395;-80
2023/03/01 01:31:12;;;;;;;5.03;2.38;;;;;;;4.42;100.00;102552.78;5108588;28;20039;-80
2023/03/01 01:33:38;;;;;;;4.20;2.33;;;;;;;4.46;100.00;102553.53;5070802;28;20039;-80
2023/03/01 01:36:05;;;;;;;4.22;2.20;;;;;;;4.47;100.00;102558.72;5044957;28;20041;-79
2023/03/01 01:38:32;;;;;;;3.30;2.88;;;;;;;4.52;100.00;102558.59;5101447;28;20111;-78
2023/03/01 01:40:59;;;;;;;5.18;2.58;;;;;;;4.51;100.00;102556.84;5109973;28;20616;-80
2023/03/01 01:43:32;;;;;;;4.38;2.35;;;;;;;4.53;100.00;102544.56;5047703;28;20467;-77
2023/03/01 01:46:04;;;;;;;9.38;2.53;;;;;;;4.55;100.00;102550.63;5112130;28;20031;-80
2023/03/01 01:48:44;;;;;;;5.55;2.53;;;;;;;4.57;100.00;102553.19;5095241;28;20035;-80
2023/03/01 01:51:19;;;;;;;5.00;2.10;;;;;;;4.54;100.00;102554.13;5113291;28;20500;-80
2023/03/01 01:53:51;;;;;;;3.42;2.78;;;;;;;4.54;100.00;102553.28;5095843;28;20049;-80
2023/03/01 01:56:19;;;;;;;4.32;2.35;;;;;;;4.55;100.00;102548.00;5113619;28;20122;-80
2023/03/01 01:58:47;;;;;;;3.25;2.33;;;;;;;4.53;100.00;102547.19;5111808;28;20039;-80
2023/03/01 02:01:13;;;;;;;2.10;1.90;;;;;;;4.51;100.00;102535.91;5046513;28;20028;-80
2023/03/01 02:03:42;;;;;;;5.75;2.47;;;;;;;4.53;100.00;102534.09;5074556;28;20086;-80
2023/03/01 02:06:31;;;;;;;5.07;2.92;;;;;;;4.53;100.00;102525.38;5084168;28;20035;-80
2023/03/01 02:09:01;;;;;;;4.43;1.95;;;;;;;4.52;100.00;102528.91;5111590;28;20039;-80
2023/03/01 02:11:29;;;;;;;3.25;1.60;;;;;;;4.45;100.00;102541.34;5113191;28;20552;-80
2023/03/01 02:13:55;;;;;;;4.63;2.33;;;;;;;4.44;100.00;102521.31;5091683;28;20031;-80
2023/03/01 02:16:21;;;;;;;2.20;2.00;;;;;;;4.40;100.00;102517.94;5095139;28;20023;-79
2023/03/01 02:18:47;;;;;;;3.35;2.28;;;;;;;4.45;100.00;102517.78;5112984;28;20032;-80
2023/03/01 02:21:31;;;;;;;5.38;2.80;;;;;;;4.41;100.00;102513.56;5112337;28;20040;-77
2023/03/01 02:24:02;;;;;;;4.28;3.13;;;;;;;4.41;100.00;102513.56;5111156;28;20058;-77
2023/03/01 02:26:31;;;;;;;4.57;3.03;;;;;;;4.40;100.00;102506.59;5110735;28;20027;-80
2023/03/01 02:28:58;;;;;;;7.07;2.85;;;;;;;4.40;100.00;102496.13;5112448;28;20105;-79
2023/03/01 02:31:44;;;;;;;3.78;2.92;;;;;;;4.36;100.00;102484.94;5075662;28;20035;-80
2023/03/01 02:34:15;;;;;;;2.50;2.30;;;;;;;4.37;100.00;102491.88;5110384;28;20039;-80
2023/03/01 02:36:46;;;;;;;5.38;3.38;;;;;;;4.40;100.00;102486.53;5112341;28;20564;-80
2023/03/01 02:39:19;;;;;;;3.35;2.28;;;;;;;4.38;100.00;102484.88;5111967;28;20070;-80
2023/03/01 02:41:51;;;;;;;8.02;3.92;;;;;;;4.36;100.00;102484.06;5111289;28;20032;-80
2023/03/01 02:44:18;;;;;;;4.47;3.33;;;;;;;4.35;100.00;102483.19;5112213;28;20040;-80
2023/03/01 02:46:47;;;;;;;5.47;3.35;;;;;;;4.38;100.00;102471.78;5079216;28;20051;-76
2023/03/01 02:49:31;;;;;;;5.95;3.78;;;;;;;4.36;100.00;102469.22;5105477;28;20035;-77
2023/03/01 02:52:16;;;;;;;8.88;3.55;;;;;;;4.38;100.00;102479.63;5112314;28;20035;-80
2023/03/01 02:54:50;;;;;;;5.43;3.50;;;;;;;4.40;100.00;102477.81;5078516;28;20061;-80
2023/03/01 02:57:18;;;;;;;3.80;3.10;;;;;;;4.34;100.00;102466.66;5111537;28;20035;-80
2023/03/01 02:59:45;;;;;;;5.03;3.75;;;;;;;4.35;100.00;102467.50;5070764;28;20096;-80
2023/03/01 03:02:38;;;;;;;4.60;3.05;;;;;;;4.37;100.00;102463.06;5107638;28;20111;-80
2023/03/01 03:05:13;;;;;;;5.75;3.33;;;;;;;4.32;100.00;102463.22;5087014;28;20106;-79
2023/03/01 03:07:41;;;;;;;3.78;2.30;;;;;;;4.33;100.00;102456.22;5090097;28;20043;-77
2023/03/01 03:10:12;;;;;;;5.57;3.60;;;;;;;4.34;100.00;102465.78;5107266;28;20031;-76
2023/03/01 03:12:38;;;;;;;5.13;3.38;;;;;;;4.32;100.00;102459.75;5118569;27;20114;-80
2023/03/01 03:15:08;;;;;;;4.63;2.95;;;;;;;4.31;100.00;102453.66;5107277;28;20136;-79
2023/03/01 03:17:37;;;;;;;6.10;3.10;;;;;;;4.33;100.00;102449.22;5085079;28;20126;-80
2023/03/01 03:20:11;;;;;;;3.33;3.03;;;;;;;4.33;100.00;102445.75;5092671;28;20040;-80
2023/03/01 03:22:40;;;;;;;3.72;2.15;;;;;;;4.28;100.00;102448.53;5092667;28;20102;-79
2023/03/01 03:25:10;;;;;;;3.28;2.83;;;;;;;4.25;100.00;102447.78;5110097;28;20024;-79
2023/03/01 03:27:43;;;;;;;5.35;3.10;;;;;;;4.25;100.00;102430.31;5110729;28;20035;-80
2023/03/01 03:30:13;;;;;;;4.18;3.45;;;;;;;4.22;100.00;102440.91;5107844;28;20038;-80
2023/03/01 03:32:40;;;;;;;5.07;2.50;;;;;;;4.20;100.00;102443.53;5110850;28;20032;-80
2023/03/01 03:35:11;;;;;;;5.30;3.70;;;;;;;4.24;100.00;102433.00;5106525;28;20080;-80
2023/03/01 03:40:25;;;;;;;7.68;3.45;;;;;;;4.24;100.00;102423.34;5090416;28;20388;-79
2023/03/01 03:42:51;;;;;;;7.80;3.90;;;;;;;4.23;100.00;102429.50;5107291;28;20032;-80
2023/03/01 03:45:17;;;;;;;4.18;3.15;;;;;;;4.24;100.00;102423.34;5109163;28;20035;-80
2023/03/01 03:47:44;;;;;;;4.03;3.53;;;;;;;4.22;100.00;102425.19;5107328;28;20046;-80
2023/03/01 03:50:12;;;;;;;5.57;3.35;;;;;;;4.26;100.00;102425.91;5109237;28;20032;-79
2023/03/01 03:52:38;;;;;;;6.55;3.08;;;;;;;4.26;100.00;102429.41;5090696;28;20387;-80
2023/03/01 03:55:10;;;;;;;4.07;3.00;;;;;;;4.26;100.00;102426.78;5105288;28;20024;-79
2023/03/01 03:57:42;;;;;;;6.80;3.35;;;;;;;4.26;100.00;102418.94;5089845;28;20403;-80
2023/03/01 04:00:15;;;;;;;5.15;3.45;;;;;;;4.28;100.00;102418.88;5095253;28;20117;-80
2023/03/01 04:02:45;;;;;;;4.90;2.90;;;;;;;4.28;100.00;102413.66;5086845;28;20059;-80
2023/03/01 04:05:14;;;;;;;3.00;2.42;;;;;;;4.29;100.00;102421.44;5107860;28;20031;-80
2023/03/01 04:07:40;;;;;;;4.15;2.63;;;;;;;4.30;100.00;102427.53;5089997;28;20046;-80
2023/03/01 04:10:09;;;;;;;3.75;2.85;;;;;;;4.34;100.00;102421.28;5106242;28;20423;-80
2023/03/01 04:12:35;;;;;;;7.13;2.60;;;;;;;4.33;100.00;102422.19;5114419;27;20031;-80
2023/03/01 04:15:13;;;;;;;6.47;2.90;;;;;;;4.38;100.00;102419.41;5105847;28;20459;-80
2023/03/01 04:17:44;;;;;;;3.72;2.20;;;;;;;4.40;100.00;102417.56;5089273;28;20383;-80
2023/03/01 04:20:24;;;;;;;2.95;1.92;;;;;;;4.36;100.00;102416.84;5105574;28;20046;-80
2023/03/01 04:23:20;;;;;;;3.67;2.25;;;;;;;4.38;100.00;102414.19;5105924;28;20399;-77
2023/03/01 04:25:53;;;;;;;3.70;2.23;;;;;;;4.35;100.00;102415.13;5108747;28;20509;-79
2023/03/01 04:28:25;;;;;;;4.10;3.03;;;;;;;4.38;100.00;102409.78;5090403;28;20046;-80
2023/03/01 04:30:52;;;;;;;4.43;2.65;;;;;;;4.39;100.00;102413.25;5108144;28;20023;-80
2023/03/01 04:33:18;;;;;;;7.28;3.35;;;;;;;4.36;100.00;102402.91;5107394;28;20536;-80
2023/03/01 04:35:44;;;;;;;6.50;3.10;;;;;;;4.37;100.00;102409.84;5091809;28;20067;-79
2023/03/01 04:38:10;;;;;;;3.42;2.45;;;;;;;4.37;100.00;102408.06;5107544;28;20112;-80
2023/03/01 04:40:36;;;;;;;4.55;2.78;;;;;;;4.36;100.00;102413.38;5107903;28;20092;-80
2023/03/01 04:43:03;;;;;;;4.53;2.83;;;;;;;4.37;100.00;102404.59;5108086;28;20110;-80
2023/03/01 04:45:29;;;;;;;4.72;2.80;;;;;;;4.36;100.00;102403.75;5108754;28;20044;-80
2023/03/01 04:47:57;;;;;;;3.35;2.45;;;;;;;4.37;100.00;102409.84;5106842;28;20030;-80
2023/03/01 04:50:25;;;;;;;3.85;2.53;;;;;;;4.37;100.00;102415.06;5091119;28;20023;-80
2023/03/01 04:52:52;;;;;;;4.28;3.10;;;;;;;4.35;100.00;102415.13;5105707;28;20038;-80
2023/03/01 04:55:17;;;;;;;4.57;2.40;;;;;;;4.34;100.00;102409.06;5105514;28;20036;-80
2023/03/01 04:57:43;;;;;;;3.80;2.40;;;;;;;4.38;100.00;102408.94;5110373;28;20471;-80
2023/03/01 05:00:23;;;;;;;5.38;2.78;;;;;;;4.40;100.00;102414.97;5108782;28;20023;-80
2023/03/01 05:02:52;;;;;;;3.42;2.03;;;;;;;4.39;100.00;102408.88;5107677;28;20460;-80
2023/03/01 05:05:27;;;;;;;4.03;2.28;;;;;;;4.42;100.00;102418.38;5107508;28;20031;-80
2023/03/01 05:07:58;;;;;;;3.13;2.05;;;;;;;4.44;100.00;102417.41;5100058;28;20036;-80
2023/03/01 05:10:26;;;;;;;4.05;2.20;;;;;;;4.44;100.00;102416.56;5103403;28;20043;-80
2023/03/01 05:12:52;;;;;;;3.78;2.45;;;;;;;4.44;100.00;102417.41;5108310;28;20101;-79
2023/03/01 05:15:21;;;;;;;11.00;2.00;;;;;;;4.46;100.00;102409.50;5090398;28;20449;-80
2023/03/01 05:17:48;;;;;;;2.20;1.92;;;;;;;4.46;100.00;102402.50;5109779;28;20028;-80
2023/03/01 05:20:14;;;;;;;4.57;1.92;;;;;;;4.45;100.00;102402.56;5107799;28;20031;-80
2023/03/01 05:22:40;;;;;;;4.60;2.00;;;;;;;4.44;100.00;102406.09;5112731;28;20036;-80
2023/03/01 05:25:07;;;;;;;2.90;1.63;;;;;;;4.44;100.00;102399.09;5112511;28;20042;-80
2023/03/01 05:27:33;;;;;;;4.47;1.90;;;;;;;4.44;100.00;102398.25;5112806;28;20483;-80
2023/03/01 05:29:59;;;;;;;5.35;1.83;;;;;;;4.43;100.00;102407.84;5112541;28;20106;-80
2023/03/01 05:32:25;;;;;;;5.22;2.05;;;;;;;4.42;100.00;102398.31;5094629;28;20035;-77
2023/03/01 05:34:51;;;;;;;4.07;1.77;;;;;;;4.46;100.00;102401.63;5111622;28;20031;-77
2023/03/01 05:37:17;;;;;;;2.67;1.65;;;;;;;4.48;100.00;102402.44;5115169;28;20050;-80
2023/03/01 05:39:43;;;;;;;2.45;1.77;;;;;;;4.50;100.00;102403.25;5092467;28;20031;-80
2023/03/01 05:42:10;;;;;;;3.15;1.58;;;;;;;4.53;100.00;102391.81;5112935;28;20023;-80
2023/03/01 05:44:36;;;;;;;4.10;1.75;;;;;;;4.52;100.00;102390.09;5113486;28;20020;-80
2023/03/01 05:47:02;;;;;;;2.53;1.70;;;;;;;4.53;100.00;102391.81;5112282;28;20046;-76
2023/03/01 05:49:28;;;;;;;3.20;1.75;;;;;;;4.50;100.00;102394.53;5112115;28;20109;-77
2023/03/01 05:51:55;;;;;;;4.13;1.70;;;;;;;4.52;100.00;102400.59;5095801;28;20044;-80
2023/03/01 05:54:21;;;;;;;5.13;1.83;;;;;;;4.52;100.00;102401.44;5110590;27;20028;-80
2023/03/01 05:56:47;;;;;;;4.05;2.10;;;;;;;4.52;100.00;102397.97;5115069;27;20055;-80
2023/03/01 05:59:14;;;;;;;7.82;2.33;;;;;;;4.53;100.00;102399.66;5101034;28;20035;-80
2023/03/01 06:01:40;;;;;;;4.57;1.80;;;;;;;4.55;100.00;102400.47;5111428;28;20077;-79
2023/03/01 06:04:06;;;;;;;6.07;3.70;;;;;;;4.56;100.00;102404.78;5111359;28;20024;-80
2023/03/01 06:06:38;;;;;;;3.20;1.55;;;;;;;4.61;100.00;102409.84;5078948;28;20042;-80
2023/03/01 06:09:07;;;;;;;2.53;1.48;;;;;;;4.59;100.00;102412.53;5106040;28;20038;-80
2023/03/01 06:11:36;;;;;;;4.90;2.20;;;;;;;4.63;100.00;102394.94;5112460;28;20040;-80
2023/03/01 06:14:03;;;;;;;1.98;1.42;;;;;;;4.61;100.00;102399.38;5107550;28;20036;-80
2023/03/01 06:16:29;;;;;;;1.70;1.50;;;;;;;4.56;100.00;102389.06;5107592;28;20522;-80
2023/03/01 06:18:54;;;;;;;1.58;0.80;;;;;;;4.58;100.00;102400.34;5111953;28;20031;-80
2023/03/01 06:21:20;;;;;;;2.70;0.82;;;;;;;4.57;100.00;102409.97;5112778;28;20032;-80
2023/03/01 06:23:46;;;;;;;1.33;0.70;;;;;;;4.59;100.00;102413.41;5112389;28;20032;-80
2023/03/01 06:26:12;;;;;;;2.88;0.88;;;;;;;4.62;100.00;102415.03;5094267;28;20403;-80
2023/03/01 06:28:37;;;;;;;4.97;1.13;;;;;;;4.63;100.00;102414.16;5095355;28;20042;-80
2023/03/01 06:31:03;;;;;;;2.20;0.80;;;;;;;4.63;100.00;102414.16;5091303;28;20040;-80
2023/03/01 06:33:29;;;;;;;4.05;0.65;;;;;;;4.63;100.00;102414.16;5113134;28;20039;-80
2023/03/01 06:35:56;;;;;;;1.80;0.70;;;;;;;4.62;100.00;102409.81;5111842;28;20028;-80
2023/03/01 06:38:23;;;;;;;1.30;0.85;;;;;;;4.64;100.00;102413.22;5109973;28;20092;-80
2023/03/01 06:40:54;;;;;;;1.50;0.70;;;;;;;4.66;100.00;102416.66;5111307;28;20024;-80
2023/03/01 06:43:20;;;;;;;0.95;0.30;;;;;;;4.66;100.00;102414.03;5127621;27;20054;-80
2023/03/01 06:45:46;;;;;;;1.25;0.40;;;;;;;4.65;100.00;102414.09;5111090;28;20043;-80
2023/03/01 06:48:11;;;;;;;3.22;0.80;;;;;;;4.64;100.00;102404.50;5094168;28;20039;-79
2023/03/01 06:50:37;;;;;;;1.75;0.30;;;;;;;4.63;100.00;102398.44;5111602;28;20036;-80
2023/03/01 06:53:04;;;;;;;2.72;0.40;;;;;;;4.64;100.00;102396.66;5091359;28;20507;-80
2023/03/01 06:55:30;;;;;;;0.95;0.38;;;;;;;4.65;100.00;102404.44;5106091;28;20032;-80
2023/03/01 06:57:58;;;;;;;1.95;0.25;;;;;;;4.66;100.00;102407.94;5110738;28;20035;-80
2023/03/01 07:00:24;;;;;;;1.67;0.60;;;;;;;4.66;100.00;102410.56;5092416;28;20538;-80
2023/03/01 07:02:50;;;;;;;1.08;0.47;;;;;;;4.64;100.00;102409.75;5110050;28;20043;-79
2023/03/01 07:05:16;;;;;;;1.50;0.30;;;;;;;4.64;100.00;102412.34;5110791;28;20031;-80
2023/03/01 07:07:42;;;;;;;1.55;0.17;;;;;;;4.62;100.00;102408.97;5107945;28;20117;-80
2023/03/01 07:10:09;;;;;;;1.65;0.32;;;;;;;4.62;100.00;102401.94;5106809;28;20383;-80
2023/03/01 07:12:34;;;;;;;1.38;0.28;;;;;;;4.61;100.00;102402.88;5109971;28;20031;-80
2023/03/01 07:15:00;;;;;;;3.03;0.50;;;;;;;4.61;100.00;102407.25;5112534;28;20093;-80
2023/03/01 07:17:27;;;;;;;1.70;0.32;;;;;;;4.64;100.00;102412.34;5094322;28;20039;-79
2023/03/01 07:19:52;;;;;;;1.08;0.30;;;;;;;4.59;100.00;102400.31;5109659;28;20038;-80
2023/03/01 07:22:18;;;;;;;1.60;0.40;;;;;;;4.63;100.00;102400.19;5112365;28;20028;-80
2023/03/01 07:24:44;;;;;;;1.83;0.35;;;;;;;4.61;100.00;102405.47;5110790;28;20031;-80
2023/03/01 07:27:10;;;;;;;3.40;0.45;;;;;;;4.61;100.00;102407.25;5105259;28;20337;-80
2023/03/01 07:29:38;;;;;;;3.92;0.60;;;;;;;4.63;100.00;102395.81;5109652;28;20035;-80
2023/03/01 07:32:05;;;;;;;2.08;0.30;;;;;;;4.66;100.00;102397.44;5110131;28;20495;-80
2023/03/01 07:34:31;;;;;;;1.58;0.20;;;;;;;4.64;100.00;102402.75;5100553;28;20039;-80
2023/03/01 07:36:57;;;;;;;0.73;0.20;;;;;;;4.67;100.00;102407.00;5110990;28;20032;-80
2023/03/01 07:39:23;;;;;;;3.63;0.52;;;;;;;4.67;100.00;102405.25;5107007;28;20357;-80
2023/03/01 07:41:50;;;;;;;2.50;0.65;;;;;;;4.69;100.00;102402.56;5111070;28;20031;-80
2023/03/01 07:44:20;;;;;;;2.65;0.50;;;;;;;4.71;100.00;102400.75;5105218;28;20043;-80
2023/03/01 07:46:46;;;;;;;1.38;0.52;;;;;;;4.74;100.00;102412.88;5108466;28;20038;-79
2023/03/01 07:49:12;;;;;;;3.20;0.63;;;;;;;4.74;100.00;102402.41;5086993;28;20031;-80
2023/03/01 07:51:37;;;;;;;3.00;0.40;;;;;;;4.72;100.00;102399.84;5091588;28;20403;-80
2023/03/01 07:54:03;;;;;;;3.25;0.90;;;;;;;4.77;100.00;102389.19;5097708;28;20515;-80
2023/03/01 07:56:29;;;;;;;3.75;1.08;;;;;;;4.80;100.00;102395.19;5107065;28;20036;-80
2023/03/01 07:58:55;;;;;;;2.13;0.93;;;;;;;4.83;100.00;102397.69;5108713;28;20076;-80
2023/03/01 08:01:21;;;;;;;2.90;1.05;;;;;;;4.82;100.00;102403.84;5092578;28;20028;-81
2023/03/01 08:03:48;;;;;;;1.85;0.75;;;;;;;4.86;100.00;102404.56;5110066;28;20085;-80
2023/03/01 08:06:17;;;;;;;1.58;0.65;;;;;;;4.90;100.00;102406.16;5107303;28;20042;-80
2023/03/01 08:08:44;;;;;;;2.15;0.82;;;;;;;4.92;100.00;102403.50;5107108;28;20032;-80
2023/03/01 08:11:12;;;;;;;1.52;0.68;;;;;;;4.95;100.00;102398.13;5074565;28;20379;-80
2023/03/01 08:13:38;;;;;;;1.50;0.55;;;;;;;4.93;100.00;102394.69;5092205;28;20035;-80
2023/03/01 08:16:07;;;;;;;3.25;0.73;;;;;;;5.00;100.00;102406.66;5078005;28;20035;-81
2023/03/01 08:18:33;;;;;;;2.72;0.52;;;;;;;4.99;100.00;102398.84;5120997;27;20024;-80
2023/03/01 08:21:13;;;;;;;1.00;0.47;;;;;;;5.02;100.00;102411.81;5108680;28;20036;-81
2023/03/01 08:23:39;;;;;;;1.23;0.30;;;;;;;4.94;100.00;102430.47;5088600;28;20098;-80
2023/03/01 08:26:05;;;;;;;1.00;0.50;;;;;;;4.87;100.00;102421.16;5100573;28;20146;-81
2023/03/01 08:28:31;;;;;;;3.65;0.90;;;;;;;4.89;100.00;102427.19;5107957;28;20036;-80
2023/03/01 08:30:57;;;;;;;4.32;0.77;;;;;;;4.86;100.00;102430.75;5087136;28;20032;-81
2023/03/01 08:33:23;;;;;;;1.10;0.40;;;;;;;4.86;100.00;102433.38;5070899;28;20392;-81
2023/03/01 08:35:48;;;;;;;2.10;0.63;;;;;;;4.83;100.00;102433.50;5107040;28;20027;-81
2023/03/01 08:38:14;;;;;;;0.95;0.55;;;;;;;4.83;100.00;102441.34;5097609;28;20495;-80
2023/03/01 08:40:40;;;;;;;3.58;0.65;;;;;;;4.76;100.00;102442.50;5090837;28;20036;-80
2023/03/01 08:43:06;;;;;;;0.90;0.40;;;;;;;4.71;100.00;102442.69;5107870;27;20032;-80
2023/03/01 08:45:31;;;;;;;3.80;0.65;;;;;;;4.72;100.00;102440.00;5105831;27;20433;-81
2023/03/01 08:47:57;;;;;;;3.13;1.02;;;;;;;4.72;100.00;102433.91;5110323;28;20027;-80
2023/03/01 08:50:24;;;;;;;6.05;0.82;;;;;;;4.75;100.00;102435.53;5102651;27;20059;-80
2023/03/01 08:52:50;;;;;;;3.30;0.70;;;;;;;4.74;100.00;102437.31;5051421;28;20500;-81
2023/03/01 08:55:17;;;;;;;6.40;0.98;;;;;;;4.75;100.00;102443.41;5047359;28;20072;-80
2023/03/01 08:57:43;;;;;;;3.65;0.90;;;;;;;4.80;100.00;102442.34;5060091;28;20134;-81
2023/03/01 09:00:11;;;;;;;3.83;1.33;;;;;;;4.84;100.00;102441.31;5084692;28;20105;-80
2023/03/01 09:02:38;;;;;;;6.80;0.85;;;;;;;4.81;100.00;102438.78;5078852;28;20053;-80
2023/03/01 09:05:04;;;;;;;0.88;0.30;;;;;;;4.84;100.00;102437.84;5078794;28;20032;-80
2023/03/01 09:07:30;;;;;;;1.70;0.50;;;;;;;4.88;100.00;102434.19;5066326;28;20032;-80
2023/03/01 09:09:56;;;;;;;2.20;0.38;;;;;;;4.91;100.00;102431.44;5049232;28;20420;-80
2023/03/01 09:12:22;;;;;;;1.60;0.40;;;;;;;4.96;100.00;102420.78;5076852;28;20131;-80
2023/03/01 09:14:48;;;;;;;0.38;0.20;;;;;;;4.97;100.00;102428.59;5086989;28;20028;-80
2023/03/01 09:17:13;;;;;;;1.63;0.30;;;;;;;5.06;100.00;102422.16;5064977;28;20554;-80
2023/03/01 09:19:39;;;;;;;2.55;0.50;;;;;;;5.03;100.00;102427.50;5081553;28;20028;-80
2023/03/01 09:22:05;;;;;;;2.28;0.20;;;;;;;5.08;100.00;102420.31;5085116;28;20381;-80
2023/03/01 09:24:31;;;;;;;3.35;0.50;;;;;;;5.05;100.00;102416.94;5086633;28;20016;-79
2023/03/01 09:26:57;;;;;;;2.03;0.52;;;;;;;5.14;100.00;102432.34;5087085;28;20067;-80
2023/03/01 09:29:24;;;;;;;1.33;0.30;;;;;;;5.13;100.00;102417.50;5089084;28;20030;-79
2023/03/01 09:31:49;;;;;;;2.88;0.82;;;;;;;5.07;100.00;102430.88;5080775;28;20039;-80
2023/03/01 09:34:19;;;;;;;11.80;0.60;;;;;;;5.11;100.00;102429.84;5048423;28;20037;-80
2023/03/01 09:36:45;;;;;;;2.47;0.60;;;;;;;5.17;100.00;102424.38;5065395;28;20055;-79
2023/03/01 09:39:10;;;;;;;4.07;0.85;;;;;;;5.14;100.00;102426.25;5049477;28;20678;-79
2023/03/01 09:42:01;;;;;;;1.42;0.30;;;;;;;5.15;100.00;102426.19;5087993;28;20059;-79
2023/03/01 09:44:31;;;;;;;2.03;0.40;;;;;;;5.11;100.00;102424.59;5056857;28;20024;-76
2023/03/01 09:46:58;;;;;;;5.10;0.50;;;;;;;5.10;100.00;102417.63;5084419;28;20040;-79
2023/03/01 09:49:26;;;;;;;0.60;0.32;;;;;;;5.13;100.00;102420.13;5078619;28;20032;-79
2023/03/01 09:52:19;;;;;;;1.75;0.38;;;;;;;5.16;100.00;102416.56;5054348;28;20028;-79
2023/03/01 09:54:45;;;;;;;1.67;0.38;;;;;;;5.21;100.00;102422.47;5078994;28;20036;-79
2023/03/01 09:57:19;;;;;;;2.17;0.40;;;;;;;5.31;100.00;102418.56;5081635;28;20551;-79
2023/03/01 10:00:04;;;;;;;5.80;0.40;;;;;;;5.39;100.00;102405.16;5089224;28;20496;-79
2023/03/01 10:02:46;;;;;;;1.02;0.40;;;;;;;5.45;100.00;102411.91;5083229;28;20085;-79
2023/03/01 10:05:39;;;;;;;2.08;0.40;;;;;;;5.38;100.00;102411.31;5083699;28;20055;-79
2023/03/01 10:08:07;;;;;;;1.02;0.40;;;;;;;5.36;100.00;102404.41;5083209;28;20496;-79
2023/03/01 10:10:37;;;;;;;0.77;0.10;;;;;;;5.27;100.00;102408.28;5086996;28;20043;-79
2023/03/01 10:13:13;;;;;;;1.23;0.40;;;;;;;5.38;100.00;102402.59;5087896;28;20052;-80
2023/03/01 10:15:44;;;;;;;0.47;0.40;;;;;;;5.52;100.00;102402.91;5092586;28;20054;-79
2023/03/01 10:18:15;;;;;;;1.45;0.40;;;;;;;5.49;100.00;102400.41;5078300;28;20507;-79
2023/03/01 10:20:45;;;;;;;1.73;0.50;;;;;;;5.56;100.00;102400.97;5089353;28;20126;-79
2023/03/01 10:23:11;;;;;;;1.52;0.43;;;;;;;5.54;100.00;102398.41;5091679;28;20553;-78
2023/03/01 10:25:57;;;;;;;2.17;0.47;;;;;;;5.54;100.00;102387.09;5044397;28;20044;-79
2023/03/01 10:29:08;;;;;;;2.95;0.70;;;;;;;5.42;100.00;102388.44;5074115;28;20384;-79
2023/03/01 10:31:42;;;;;;;1.55;0.80;;;;;;;5.67;100.00;102388.28;4986327;28;20108;-79
2023/03/01 10:34:12;;;;;;;2.15;0.57;;;;;;;5.77;100.00;102386.13;5081286;28;20129;-79
2023/03/01 10:36:40;;;;;;;2.83;0.52;;;;;;;5.80;100.00;102383.38;5083701;28;20035;-79
2023/03/01 10:39:32;;;;;;;1.70;0.80;;;;;;;5.84;100.00;102382.31;5086018;28;20028;-79
2023/03/01 10:42:01;;;;;;;6.78;0.80;;;;;;;5.89;100.00;102386.53;5067688;28;20480;-79
2023/03/01 10:44:36;;;;;;;1.80;0.70;;;;;;;5.90;100.00;102390.84;5090699;28;20077;-79
2023/03/01 10:47:02;;;;;;;2.17;1.23;;;;;;;5.95;100.00;102387.13;5079578;28;20192;-79
2023/03/01 10:49:28;;;;;;;0.55;0.30;;;;;;;6.00;100.00;102383.44;5068496;28;20035;-79
2023/03/01 10:51:54;;;;;;;2.88;0.70;;;;;;;5.96;100.00;102388.84;5090457;28;20055;-79
2023/03/01 10:54:28;;;;;;;1.27;0.30;;;;;;;5.71;100.00;102394.25;5056348;28;20028;-79
2023/03/01 10:57:00;;;;;;;1.35;0.30;;;;;;;5.87;100.00;102383.13;5081807;28;20392;-78
2023/03/01 10:59:37;;;;;;;2.35;0.32;;;;;;;5.83;100.00;102387.63;5089455;28;20417;-79
2023/03/01 11:02:09;;;;;;;1.70;0.43;;;;;;;5.86;100.00;102382.25;5090668;28;20516;-79
2023/03/01 11:04:35;;;;;;;4.50;0.38;;;;;;;5.92;100.00;102389.03;5086674;28;20073;-79
2023/03/01 11:07:02;;;;;;;3.03;0.40;;;;;;;5.91;100.00;102387.34;5068213;28;20028;-79
2023/03/01 11:09:42;;;;;;;2.05;0.20;;;;;;;6.03;100.00;102381.56;5089328;28;20020;-79
2023/03/01 11:12:15;;;;;;;0.88;0.47;;;;;;;6.03;100.00;102375.44;5084593;28;20113;-79
2023/03/01 11:14:55;;;;;;;1.08;0.40;;;;;;;5.90;100.00;102391.72;5081487;28;20029;-79
2023/03/01 11:17:27;;;;;;;6.22;0.40;;;;;;;6.03;100.00;102378.94;5079213;28;20032;-79
2023/03/01 11:20:29;;;;;;;4.07;0.25;;;;;;;5.98;100.00;102391.41;5087863;28;20035;-78
2023/03/01 11:22:59;;;;;;;2.30;0.52;;;;;;;5.65;100.00;102395.38;5059605;28;20029;-78
2023/03/01 11:25:28;;;;;;;1.13;0.32;;;;;;;5.59;100.00;102383.34;5083158;28;20391;-79
2023/03/01 11:27:57;;;;;;;1.00;0.20;;;;;;;5.45;100.00;102388.31;5077021;28;20393;-78
2023/03/01 11:30:40;;;;;;;2.95;0.40;;;;;;;5.62;100.00;102385.03;5085147;28;20107;-78
2023/03/01 11:33:52;;;;;;;0.82;0.28;;;;;;;5.86;100.00;102381.41;5069480;28;20119;-79
2023/03/01 11:36:23;;;;;;;3.03;0.30;;;;;;;6.06;100.00;102370.94;5086848;28;20042;-79
2023/03/01 11:38:50;;;;;;;1.63;0.20;;;;;;;5.96;100.00;102375.72;5085145;28;20032;-79